Impacts TAF Board INFO
FOR SITUATIONAL AWARENESS. NOT TO BE USED FOR FLIGHT PLANNING PURPOSES.
IDs:

KPHL - Philadelphia Intl, PA, US

Issued at 1337 UTC 21 Feb 2018
Updated at 1516 UTC 21 Feb 2018
Potential Impact None Slight Moderate High
Time1454Z 21/16Z 21/17Z 21/18Z 21/19Z 21/20Z 21/21Z 21/22Z 21/23Z 22/00Z 22/01Z 22/02Z 22/03Z 22/04Z>>
Type OBS PRVL PRVL PRVL PRVL PRVL PRVL PRVL PRVL PRVL
  [PRB30]  
PRVL
  [PRB30]  
PRVL PRVL PRVL
VIS 2 >6 >6 >6 >6 >6 >6 >6 >6 >6
  [5]  
>6
  [5]  
>6 >6 >6
CIG 3 25 60 60 60 60 60 60 60 60
  [25]  
60
  [25]  
60 60 40
Cover OVC BKN BKN BKN BKN BKN BKN BKN BKN BKN
  [BKN]  
BKN
  [BKN]  
BKN BKN OVC
FltCat LIFR MVFR VFR VFR VFR VFR VFR VFR VFR VFR
  [MVFR]  
VFR
  [MVFR]  
VFR VFR VFR
WX BR -- -- -- -- -- -- -- -- --
  [-SHRA]  
--
  [-SHRA]  
-- -- --
WDir 230 220 230 230 230 230 230 230 230 270
[270]
270
[270]
270 270 350
WSpd 9 10 12 12 12 12 12 12 12 7
  [7]  
7
  [7]  
7 7 9
WGst -- 20 22 22 22 22 22 22 22 --
  [--]  
--
  [--]  
-- -- 18

Raw TAF
KPHL 211337Z 2114/2218 21012G20KT P6SM OVC010
  FM211500 22010G20KT P6SM BKN025
  FM211700 23012G22KT P6SM BKN060
  FM220000 27007KT P6SM BKN060
  PROB30 2200/2202 5SM -SHRA BKN025
  FM220400 35009G18KT P6SM OVC040
  FM220800 01010KT P6SM OVC030
  FM221400 04010KT 2SM -SHRA OVC020


Raw METAR
KPHL 201454Z 23009KT 2SM BR OVC003 12/12 A3038 RMK AO2 DZE53 SLP285 P0000 60000 T01170117 51007
KPHL 211354Z 22010KT 9SM OVC012 17/16 A3033 RMK SLP270 T01670156
KPHL 211254Z 21016G22KT 7SM OVC010 16/15 A3033 RMK SLP268 T01610150
KPHL 211233Z 21013KT 6SM BR OVC009 16/15 A3032 RMK T01560150

METAR Board
Radar Display
Forecast Discussion

FOR SITUATIONAL AWARENESS. NOT TO BE USED FOR FLIGHT PLANNING PURPOSES.